Time;durP1;ratioP1;P1;durP2;ratioP2;P2;SDS_P1;SDS_P2;PMS_P1;PMS_P2;Temp;Humidity;BMP_temperature;BMP_pressure;BME280_temperature;BME280_humidity;BME280_pressure;Samples;Min_cycle;Max_cycle;Signal;HPM_P1;HPM_P2
2022/01/01 00:01:28;;;;;;;112.70;68.35;;;9.90;99.90;;;;;;5098434;28;20077;-82
2022/01/01 00:03:54;;;;;;;76.65;33.45;;;9.90;99.90;;;;;;5110481;28;20122;-81
2022/01/01 00:06:19;;;;;;;76.20;37.65;;;9.90;99.90;;;;;;5112378;27;20444;-82
2022/01/01 00:08:45;;;;;;;79.45;50.10;;;9.90;99.90;;;;;;5113963;27;20040;-82
2022/01/01 00:11:12;;;;;;;69.53;32.30;;;9.90;99.90;;;;;;5109613;28;20027;-83
2022/01/01 00:13:37;;;;;;;66.88;30.67;;;9.90;99.90;;;;;;5109211;28;20047;-82
2022/01/01 00:16:09;;;;;;;96.85;45.88;;;9.90;99.90;;;;;;5109495;27;20051;-81
2022/01/01 00:18:35;;;;;;;64.72;30.52;;;9.90;99.90;;;;;;5092844;27;20485;-82
2022/01/01 00:21:01;;;;;;;73.68;30.05;;;9.90;99.90;;;;;;5126602;27;20080;-85
2022/01/01 00:23:26;;;;;;;66.70;31.90;;;9.90;99.90;;;;;;5101757;27;20097;-82
2022/01/01 00:25:52;;;;;;;64.13;27.05;;;9.80;99.90;;;;;;5098912;28;20043;-86
2022/01/01 00:28:17;;;;;;;74.22;30.25;;;9.80;99.90;;;;;;5112137;28;20055;-84
2022/01/01 00:30:43;;;;;;;73.10;26.92;;;9.80;99.90;;;;;;5114929;27;20394;-82
2022/01/01 00:33:09;;;;;;;63.28;28.13;;;9.80;99.90;;;;;;5113812;27;20039;-83
2022/01/01 00:35:34;;;;;;;66.85;27.35;;;9.80;99.90;;;;;;5118567;27;20035;-84
2022/01/01 00:38:00;;;;;;;64.50;27.25;;;9.80;99.90;;;;;;5122348;27;20046;-83
2022/01/01 00:40:25;;;;;;;63.88;27.23;;;9.90;99.90;;;;;;5115385;27;20485;-83
2022/01/01 00:42:51;;;;;;;72.90;28.33;;;9.90;99.90;;;;;;5110460;28;20123;-83
2022/01/01 00:45:16;;;;;;;62.38;26.35;;;9.80;99.90;;;;;;5108618;27;20126;-83
2022/01/01 00:47:42;;;;;;;70.63;28.23;;;9.80;99.90;;;;;;5114092;28;20039;-82
2022/01/01 00:50:08;;;;;;;66.97;28.52;;;9.80;99.90;;;;;;5131401;28;20039;-83
2022/01/01 00:52:33;;;;;;;68.28;26.13;;;9.70;99.90;;;;;;5121843;28;20781;-83
2022/01/01 00:54:59;;;;;;;47.42;21.08;;;9.70;99.90;;;;;;5130443;28;20414;-84
2022/01/01 00:57:25;;;;;;;64.10;24.88;;;9.70;99.90;;;;;;5095962;28;21654;-86
2022/01/01 00:59:51;;;;;;;53.22;22.40;;;9.70;99.90;;;;;;5114074;28;20038;-84
2022/01/01 01:02:17;;;;;;;69.07;23.17;;;9.60;99.90;;;;;;5125428;28;20036;-84
2022/01/01 01:04:42;;;;;;;68.57;23.63;;;9.60;99.90;;;;;;5113839;28;20504;-74
2022/01/01 01:07:10;;;;;;;66.72;24.65;;;9.60;99.90;;;;;;5122891;28;20062;-83
2022/01/01 01:09:35;;;;;;;68.63;24.58;;;9.50;99.90;;;;;;5126279;28;20502;-83
2022/01/01 01:12:01;;;;;;;66.28;24.45;;;9.50;99.90;;;;;;5110658;28;20039;-77
2022/01/01 01:14:28;;;;;;;65.25;23.30;;;9.50;99.90;;;;;;5108632;28;20092;-83
2022/01/01 01:16:55;;;;;;;65.85;26.08;;;9.50;99.90;;;;;;5110551;28;20079;-79
2022/01/01 01:19:20;;;;;;;69.22;26.15;;;9.50;99.90;;;;;;5092500;28;20077;-82
2022/01/01 01:21:46;;;;;;;136.63;70.35;;;9.50;99.90;;;;;;5091393;28;20036;-85
2022/01/01 01:24:14;;;;;;;77.63;27.25;;;9.50;99.90;;;;;;5093014;28;20474;-84
2022/01/01 01:26:45;;;;;;;85.80;34.70;;;9.40;99.90;;;;;;5096949;28;20051;-81
2022/01/01 01:29:11;;;;;;;77.20;31.95;;;9.50;99.90;;;;;;5130192;28;20488;-85
2022/01/01 01:31:37;;;;;;;93.35;38.78;;;9.40;99.90;;;;;;5116630;28;20047;-85
2022/01/01 01:34:02;;;;;;;109.55;43.25;;;9.50;99.90;;;;;;5114857;28;20051;-84
2022/01/01 01:36:28;;;;;;;109.07;51.30;;;9.40;99.90;;;;;;5109919;28;20092;-84
2022/01/01 01:38:54;;;;;;;108.85;56.50;;;9.50;99.90;;;;;;5112518;28;20044;-83
2022/01/01 01:41:19;;;;;;;126.28;62.38;;;9.50;99.90;;;;;;5114648;28;20129;-84
2022/01/01 01:43:46;;;;;;;152.55;67.55;;;9.60;99.90;;;;;;5117434;28;20031;-83
2022/01/01 01:46:13;;;;;;;136.18;72.07;;;9.60;99.90;;;;;;5111611;28;20401;-82
2022/01/01 01:48:39;;;;;;;148.80;74.00;;;9.50;99.90;;;;;;5127464;28;20475;-84
2022/01/01 01:51:04;;;;;;;163.43;78.30;;;9.50;99.90;;;;;;5128702;28;20062;-81
2022/01/01 01:53:32;;;;;;;144.60;75.65;;;9.50;99.90;;;;;;5120064;28;20035;-82
2022/01/01 01:55:59;;;;;;;146.98;74.03;;;9.60;99.90;;;;;;5111404;28;20500;-82
2022/01/01 01:58:27;;;;;;;128.55;67.40;;;9.60;99.90;;;;;;5103431;27;20124;-83
2022/01/01 02:03:21;;;;;;;127.18;64.75;;;9.60;99.90;;;;;;5112362;27;20055;-81
2022/01/01 02:05:48;;;;;;;121.50;60.25;;;9.60;99.90;;;;;;5113757;28;20036;-83
2022/01/01 02:08:16;;;;;;;121.70;59.90;;;9.60;99.90;;;;;;5105780;27;20055;-75
2022/01/01 02:10:42;;;;;;;125.40;55.00;;;9.70;99.90;;;;;;5123038;27;20078;-84
2022/01/01 02:13:23;;;;;;;126.63;55.67;;;9.60;99.90;;;;;;5123506;27;20040;-83
2022/01/01 02:18:18;;;;;;;106.32;46.88;;;9.60;99.90;;;;;;5129237;27;20558;-83
2022/01/01 02:20:49;;;;;;;104.43;42.72;;;9.60;99.90;;;;;;5115757;27;20035;-83
2022/01/01 02:23:21;;;;;;;93.55;43.08;;;9.60;99.90;;;;;;5115690;27;21372;-80
2022/01/01 02:25:49;;;;;;;107.35;43.70;;;9.60;99.90;;;;;;5117824;27;20070;-83
2022/01/01 02:28:15;;;;;;;90.97;41.17;;;9.60;99.90;;;;;;5112230;27;20141;-81
2022/01/01 02:30:41;;;;;;;100.40;46.30;;;9.60;99.90;;;;;;5106210;28;20043;-81
2022/01/01 02:33:07;;;;;;;116.53;50.72;;;9.60;99.90;;;;;;5114130;27;20043;-83
2022/01/01 02:35:32;;;;;;;112.43;49.90;;;9.60;99.90;;;;;;5123261;27;20035;-81
2022/01/01 02:37:58;;;;;;;103.07;47.17;;;9.60;99.90;;;;;;5122688;27;20038;-81
2022/01/01 02:40:24;;;;;;;113.55;52.97;;;9.60;99.90;;;;;;5102736;27;20526;-81
2022/01/01 02:42:51;;;;;;;111.93;52.50;;;9.60;99.90;;;;;;5116382;27;20055;-82
2022/01/01 02:45:17;;;;;;;110.35;55.90;;;9.50;99.90;;;;;;5111485;27;20043;-81
2022/01/01 02:47:43;;;;;;;135.05;59.20;;;9.60;99.90;;;;;;5112253;27;20396;-78
2022/01/01 02:50:09;;;;;;;119.95;56.35;;;9.50;99.90;;;;;;5112647;27;20036;-82
2022/01/01 02:52:35;;;;;;;109.82;54.88;;;9.50;99.90;;;;;;5112717;27;20048;-82
2022/01/01 02:55:02;;;;;;;124.53;55.10;;;9.50;99.90;;;;;;5121039;27;20655;-82
2022/01/01 02:57:27;;;;;;;108.85;53.33;;;9.50;99.90;;;;;;5105191;28;20059;-83
2022/01/01 02:59:53;;;;;;;113.88;52.70;;;9.60;99.90;;;;;;5112187;27;20040;-82
2022/01/01 03:02:18;;;;;;;107.68;51.92;;;9.50;99.90;;;;;;5111823;27;20040;-84
2022/01/01 03:04:44;;;;;;;113.55;51.33;;;9.60;99.90;;;;;;5118766;27;20039;-84
2022/01/01 03:07:09;;;;;;;93.60;46.90;;;9.60;99.90;;;;;;5093739;28;20054;-83
2022/01/01 03:09:35;;;;;;;109.97;49.60;;;9.60;99.90;;;;;;5111560;28;20035;-83
2022/01/01 03:12:06;;;;;;;110.05;49.67;;;9.70;99.90;;;;;;5110935;27;20054;-83
2022/01/01 03:14:32;;;;;;;108.85;49.22;;;9.80;99.90;;;;;;5094779;27;20390;-85
2022/01/01 03:16:58;;;;;;;109.85;47.97;;;9.80;99.90;;;;;;5106128;28;20466;-83
2022/01/01 03:19:24;;;;;;;97.60;45.63;;;9.80;99.90;;;;;;5101077;27;20035;-84
2022/01/01 03:21:49;;;;;;;93.00;43.22;;;9.90;99.90;;;;;;5129675;27;20526;-83
2022/01/01 03:24:15;;;;;;;101.15;47.20;;;9.90;99.90;;;;;;5114677;27;20074;-82
2022/01/01 03:26:41;;;;;;;100.97;44.00;;;9.90;99.90;;;;;;5111266;28;20421;-82
2022/01/01 03:29:06;;;;;;;116.75;51.88;;;9.90;99.90;;;;;;5092513;27;20048;-83
2022/01/01 03:31:32;;;;;;;95.55;49.42;;;9.90;99.90;;;;;;5110488;27;20541;-84
2022/01/01 03:33:58;;;;;;;87.78;41.78;;;9.90;99.90;;;;;;5120110;27;20035;-84
2022/01/01 03:36:27;;;;;;;94.13;42.85;;;9.90;99.90;;;;;;5110587;27;20496;-82
2022/01/01 03:38:54;;;;;;;87.88;41.00;;;9.90;99.90;;;;;;5093366;28;20055;-83
2022/01/01 03:41:19;;;;;;;87.63;43.45;;;9.90;99.90;;;;;;5109715;28;20048;-81
2022/01/01 03:43:46;;;;;;;92.13;43.50;;;9.90;99.90;;;;;;5110660;27;20500;-82
2022/01/01 03:46:12;;;;;;;88.55;46.88;;;9.90;99.90;;;;;;5110784;27;20065;-81
2022/01/01 03:48:38;;;;;;;91.03;42.80;;;9.90;99.90;;;;;;5096629;27;20058;-82
2022/01/01 03:51:03;;;;;;;106.97;44.00;;;9.90;99.90;;;;;;5114009;27;20477;-81
2022/01/01 03:53:29;;;;;;;101.78;42.75;;;9.80;99.90;;;;;;5094599;28;20079;-81
2022/01/01 03:55:54;;;;;;;96.78;41.95;;;9.90;99.90;;;;;;5094566;28;20078;-81
2022/01/01 03:58:20;;;;;;;99.07;42.28;;;9.90;99.90;;;;;;5131755;27;20106;-82
2022/01/01 04:00:46;;;;;;;93.20;43.95;;;9.90;99.90;;;;;;5125370;27;20427;-84
2022/01/01 04:03:16;;;;;;;89.40;42.42;;;9.90;99.90;;;;;;5097860;28;20056;-86
2022/01/01 04:05:43;;;;;;;85.43;41.80;;;9.90;99.90;;;;;;5112630;27;20047;-83
2022/01/01 04:08:10;;;;;;;98.15;42.08;;;9.90;99.90;;;;;;5119190;27;20046;-84
2022/01/01 04:10:36;;;;;;;96.63;44.72;;;9.90;99.90;;;;;;5091430;27;20470;-83
2022/01/01 04:13:04;;;;;;;93.78;45.97;;;9.90;99.90;;;;;;5095390;28;20858;-83
2022/01/01 04:15:31;;;;;;;90.13;42.08;;;9.90;99.90;;;;;;5128301;27;20042;-82
2022/01/01 04:18:01;;;;;;;96.45;44.58;;;9.90;99.90;;;;;;5126083;27;20085;-84
2022/01/01 04:20:27;;;;;;;94.53;46.90;;;9.90;99.90;;;;;;5107788;27;20446;-83
2022/01/01 04:22:55;;;;;;;84.43;44.13;;;10.00;99.90;;;;;;5122155;27;20039;-85
2022/01/01 04:25:21;;;;;;;101.05;48.28;;;10.00;99.90;;;;;;5090993;28;20062;-81
2022/01/01 04:27:51;;;;;;;95.85;44.72;;;10.00;99.90;;;;;;5109462;28;20047;-82
2022/01/01 04:30:17;;;;;;;102.40;51.80;;;10.00;99.90;;;;;;5122411;27;20148;-83
2022/01/01 04:32:43;;;;;;;94.07;50.83;;;10.00;99.90;;;;;;5105352;28;20497;-77
2022/01/01 04:35:09;;;;;;;100.03;54.50;;;10.00;99.90;;;;;;5130467;27;20046;-83
2022/01/01 04:37:35;;;;;;;88.40;55.03;;;10.00;99.90;;;;;;5119806;27;20435;-83
2022/01/01 04:40:02;;;;;;;100.18;57.58;;;10.00;99.90;;;;;;5105717;28;20102;-82
2022/01/01 04:42:29;;;;;;;102.88;56.08;;;10.00;99.90;;;;;;5098075;28;20078;-83
2022/01/01 04:44:54;;;;;;;105.75;57.75;;;10.00;99.90;;;;;;5111949;28;20508;-82
2022/01/01 04:47:20;;;;;;;113.68;58.38;;;10.00;99.90;;;;;;5110460;28;20067;-83
2022/01/01 04:49:45;;;;;;;121.10;60.55;;;10.00;99.90;;;;;;5093012;28;20040;-82
2022/01/01 04:52:11;;;;;;;113.53;62.65;;;10.10;99.90;;;;;;5097082;28;20100;-82
2022/01/01 04:54:41;;;;;;;113.55;65.78;;;10.00;99.90;;;;;;5109562;28;20043;-82
2022/01/01 04:57:07;;;;;;;126.15;66.57;;;10.00;99.90;;;;;;5107351;28;20425;-83
2022/01/01 04:59:34;;;;;;;116.63;67.57;;;10.10;99.90;;;;;;5125456;28;20397;-82
2022/01/01 05:01:59;;;;;;;124.30;66.10;;;10.10;99.90;;;;;;5102119;28;20043;-82
2022/01/01 05:04:25;;;;;;;121.55;64.30;;;10.10;99.90;;;;;;5114760;28;20043;-82
2022/01/01 05:06:51;;;;;;;116.25;64.10;;;10.10;99.90;;;;;;5118438;28;20068;-83
2022/01/01 05:09:18;;;;;;;110.13;59.13;;;10.10;99.90;;;;;;5113613;28;20110;-81
2022/01/01 05:11:44;;;;;;;124.60;56.90;;;10.10;99.90;;;;;;5092370;28;20043;-81
2022/01/01 05:14:10;;;;;;;105.68;53.60;;;10.00;99.90;;;;;;5115423;28;20581;-82
2022/01/01 05:16:36;;;;;;;108.57;52.35;;;10.10;99.90;;;;;;5091218;28;20048;-82
2022/01/01 05:19:02;;;;;;;102.75;47.58;;;10.00;99.90;;;;;;5110525;28;20039;-79
2022/01/01 05:21:31;;;;;;;101.63;47.15;;;10.00;99.90;;;;;;5104695;28;20389;-84
2022/01/01 05:23:57;;;;;;;114.60;48.38;;;10.00;99.90;;;;;;5091849;28;20036;-84
2022/01/01 05:26:22;;;;;;;93.85;39.15;;;10.00;99.90;;;;;;5091656;28;20104;-83
2022/01/01 05:28:49;;;;;;;88.75;35.55;;;10.10;99.90;;;;;;5107729;28;20084;-83
2022/01/01 05:31:16;;;;;;;90.07;37.45;;;10.00;99.90;;;;;;5124879;28;20123;-80
2022/01/01 05:33:42;;;;;;;106.38;39.33;;;10.00;99.90;;;;;;5113495;27;20401;-83
2022/01/01 05:36:07;;;;;;;109.15;39.40;;;10.00;99.90;;;;;;5113052;27;20089;-83
2022/01/01 05:38:33;;;;;;;113.65;39.33;;;10.00;99.90;;;;;;5087606;28;20823;-83
2022/01/01 05:40:58;;;;;;;120.10;42.60;;;9.90;99.90;;;;;;5113160;27;20040;-82
2022/01/01 05:43:24;;;;;;;124.65;45.63;;;10.00;99.90;;;;;;5103659;27;20099;-83
2022/01/01 05:45:50;;;;;;;127.45;44.70;;;9.90;99.90;;;;;;5113048;27;20409;-82
2022/01/01 05:48:16;;;;;;;114.88;44.30;;;9.90;99.90;;;;;;5116124;27;20035;-83
2022/01/01 05:50:42;;;;;;;143.63;44.78;;;9.90;99.90;;;;;;5114690;28;20050;-83
2022/01/01 05:53:07;;;;;;;133.65;48.53;;;9.90;99.90;;;;;;5132088;27;20043;-83
2022/01/01 05:55:34;;;;;;;144.48;51.72;;;9.90;99.90;;;;;;5125359;27;20047;-84
2022/01/01 05:57:59;;;;;;;141.63;47.97;;;10.00;99.90;;;;;;5112027;27;20035;-82
2022/01/01 06:00:25;;;;;;;137.18;48.00;;;10.00;99.90;;;;;;5112991;27;20035;-82
2022/01/01 06:02:51;;;;;;;133.32;46.58;;;10.00;99.90;;;;;;5112962;27;20046;-82
2022/01/01 06:05:18;;;;;;;140.77;46.70;;;10.00;99.90;;;;;;5094648;28;20035;-84
2022/01/01 06:07:43;;;;;;;137.75;47.25;;;10.00;99.90;;;;;;5094688;28;20405;-83
2022/01/01 06:10:09;;;;;;;111.32;43.17;;;10.00;99.90;;;;;;5100216;28;20065;-84
2022/01/01 06:12:39;;;;;;;115.13;43.58;;;10.10;99.90;;;;;;5111192;27;20089;-83
2022/01/01 06:15:05;;;;;;;99.53;43.75;;;10.10;99.90;;;;;;5120865;27;20138;-83
2022/01/01 06:17:31;;;;;;;109.68;39.83;;;10.10;99.90;;;;;;5111671;27;20039;-81
2022/01/01 06:19:56;;;;;;;95.47;38.53;;;10.10;99.90;;;;;;5094673;28;20032;-82
2022/01/01 06:22:22;;;;;;;97.00;37.58;;;10.20;99.90;;;;;;5115489;27;20489;-82
2022/01/01 06:24:47;;;;;;;99.78;39.55;;;10.20;99.90;;;;;;5125508;27;20039;-83
2022/01/01 06:27:13;;;;;;;117.47;41.15;;;10.20;99.90;;;;;;5131928;27;20047;-83
2022/01/01 06:29:39;;;;;;;118.07;41.58;;;10.20;99.90;;;;;;5114514;27;20099;-83
2022/01/01 06:32:05;;;;;;;101.88;37.67;;;10.20;99.90;;;;;;5102149;28;20050;-82
2022/01/01 06:34:30;;;;;;;85.80;39.20;;;10.20;99.90;;;;;;5099060;28;20052;-82
2022/01/01 06:36:56;;;;;;;93.00;35.15;;;10.20;99.90;;;;;;5103588;27;20043;-82
2022/01/01 06:39:21;;;;;;;81.70;33.25;;;10.20;99.90;;;;;;5117855;27;20461;-83
2022/01/01 06:41:47;;;;;;;76.47;30.48;;;10.30;99.90;;;;;;5124174;27;20035;-84
2022/01/01 06:44:13;;;;;;;76.68;30.73;;;10.30;99.90;;;;;;5111432;27;20494;-81
2022/01/01 06:46:38;;;;;;;73.88;30.85;;;10.30;99.90;;;;;;5114408;27;20511;-81
2022/01/01 06:49:04;;;;;;;70.18;28.48;;;10.30;99.90;;;;;;5113245;27;20036;-82
2022/01/01 06:51:32;;;;;;;71.00;28.98;;;10.30;99.90;;;;;;5097147;28;20043;-81
2022/01/01 06:53:58;;;;;;;71.30;29.08;;;10.30;99.90;;;;;;5128120;27;20039;-82
2022/01/01 06:56:23;;;;;;;76.32;30.50;;;10.40;99.90;;;;;;5133007;27;20043;-82
2022/01/01 06:58:49;;;;;;;72.88;29.23;;;10.40;99.90;;;;;;5119798;27;20038;-82
2022/01/01 07:01:15;;;;;;;81.43;28.85;;;10.40;99.90;;;;;;5080986;28;20122;-77
2022/01/01 07:03:40;;;;;;;78.40;28.77;;;10.40;99.90;;;;;;5115569;27;20081;-82
2022/01/01 07:06:06;;;;;;;68.78;28.95;;;10.40;99.90;;;;;;5093552;28;20478;-82
2022/01/01 07:08:31;;;;;;;72.35;28.05;;;10.50;99.90;;;;;;5120277;27;20164;-82
2022/01/01 07:10:57;;;;;;;63.47;28.05;;;10.40;99.90;;;;;;5088334;28;20096;-82
2022/01/01 07:13:22;;;;;;;87.00;32.20;;;10.50;99.90;;;;;;5091833;28;20047;-82
2022/01/01 07:15:48;;;;;;;78.93;33.08;;;10.60;99.90;;;;;;5093163;28;20052;-82
2022/01/01 07:18:14;;;;;;;81.35;33.72;;;10.50;99.90;;;;;;5093411;27;20070;-79
2022/01/01 07:20:39;;;;;;;117.93;37.63;;;10.60;99.90;;;;;;5093889;28;20488;-81
2022/01/01 07:23:05;;;;;;;85.93;34.35;;;10.60;99.90;;;;;;5096838;27;20055;-83
2022/01/01 07:25:30;;;;;;;73.13;30.20;;;10.60;99.90;;;;;;5079755;28;20055;-82
2022/01/01 07:27:56;;;;;;;81.22;32.03;;;10.70;99.90;;;;;;5091975;28;20059;-84
2022/01/01 07:30:22;;;;;;;78.13;28.20;;;10.70;99.90;;;;;;5092825;27;20032;-81
2022/01/01 07:32:48;;;;;;;82.97;29.23;;;10.80;99.90;;;;;;5076426;28;20047;-83
2022/01/01 07:35:16;;;;;;;65.95;27.92;;;10.90;99.90;;;;;;5111310;27;20075;-81
2022/01/01 07:37:42;;;;;;;58.47;26.70;;;10.80;99.90;;;;;;5098435;27;20039;-83
2022/01/01 07:40:11;;;;;;;60.20;27.98;;;10.90;99.90;;;;;;5122514;27;20039;-84
2022/01/01 07:42:37;;;;;;;62.75;27.95;;;10.90;99.90;;;;;;5091764;27;20131;-84
2022/01/01 07:45:03;;;;;;;65.03;28.75;;;10.80;99.90;;;;;;5075210;27;20044;-81
2022/01/01 07:47:29;;;;;;;57.28;28.55;;;10.90;99.90;;;;;;5126349;27;20039;-83
2022/01/01 07:49:54;;;;;;;55.22;28.70;;;10.90;99.90;;;;;;5104326;27;20047;-83
2022/01/01 07:52:20;;;;;;;78.82;29.95;;;10.90;99.90;;;;;;5094488;28;20079;-84
2022/01/01 07:54:46;;;;;;;59.90;26.15;;;10.90;99.90;;;;;;5118306;27;20035;-84
2022/01/01 07:57:12;;;;;;;64.40;29.98;;;10.90;99.90;;;;;;5092245;28;20517;-83
2022/01/01 07:59:37;;;;;;;64.53;30.48;;;11.00;99.90;;;;;;5126926;27;20440;-84
2022/01/01 08:02:03;;;;;;;67.03;27.92;;;11.00;99.90;;;;;;5131822;27;20176;-82
2022/01/01 08:04:28;;;;;;;66.90;29.85;;;11.00;99.90;;;;;;5120145;27;20039;-82
2022/01/01 08:06:54;;;;;;;58.00;30.15;;;11.00;99.90;;;;;;5123247;27;20442;-85
2022/01/01 08:09:19;;;;;;;62.15;30.08;;;11.00;99.90;;;;;;5114355;27;20427;-82
2022/01/01 08:11:45;;;;;;;66.30;30.92;;;11.10;99.90;;;;;;5092189;28;20055;-83
2022/01/01 08:14:11;;;;;;;74.97;34.97;;;11.10;99.90;;;;;;5105767;27;20080;-85
2022/01/01 08:16:56;;;;;;;55.30;29.23;;;11.10;99.90;;;;;;5095479;28;20044;-83
2022/01/01 08:19:22;;;;;;;58.00;32.03;;;11.10;99.90;;;;;;5095883;27;20051;-83
2022/01/01 08:21:48;;;;;;;58.10;29.60;;;11.10;99.90;;;;;;5112276;27;20040;-86
2022/01/01 08:24:13;;;;;;;66.28;33.58;;;11.20;99.90;;;;;;5115976;27;20047;-76
2022/01/01 08:26:39;;;;;;;70.63;33.38;;;11.20;99.90;;;;;;5110439;28;20047;-83
2022/01/01 08:29:04;;;;;;;64.45;32.63;;;11.30;99.90;;;;;;5109189;27;20494;-82
2022/01/01 08:31:30;;;;;;;59.92;30.77;;;11.30;99.90;;;;;;5090621;28;20040;-82
2022/01/01 08:33:55;;;;;;;65.63;30.67;;;11.30;99.90;;;;;;5091599;28;20044;-85
2022/01/01 08:36:21;;;;;;;65.35;30.15;;;11.30;99.90;;;;;;5113672;27;20054;-84
2022/01/01 08:38:47;;;;;;;72.43;30.77;;;11.40;99.90;;;;;;5116871;27;20051;-84
2022/01/01 08:41:12;;;;;;;55.80;28.42;;;11.30;99.90;;;;;;5115984;27;20489;-76
2022/01/01 08:43:38;;;;;;;56.55;29.50;;;11.40;99.90;;;;;;5111153;27;20439;-82
2022/01/01 08:46:04;;;;;;;49.50;27.75;;;11.50;99.90;;;;;;5112042;28;20050;-83
2022/01/01 08:48:29;;;;;;;52.63;28.42;;;11.50;99.90;;;;;;5109143;28;20040;-82
2022/01/01 08:50:55;;;;;;;50.95;27.45;;;11.50;99.90;;;;;;5094202;28;20396;-82
2022/01/01 08:53:20;;;;;;;57.58;26.95;;;11.50;99.90;;;;;;5105355;28;20096;-85
2022/01/01 08:55:46;;;;;;;55.92;25.42;;;11.50;99.90;;;;;;5103258;28;20354;-83
2022/01/01 08:58:12;;;;;;;50.67;27.38;;;11.60;99.90;;;;;;5115647;28;20040;-82
2022/01/01 09:00:37;;;;;;;52.72;26.20;;;11.60;99.90;;;;;;5094928;28;20374;-83
2022/01/01 09:03:03;;;;;;;50.03;24.33;;;11.60;99.90;;;;;;5116328;28;20035;-83
2022/01/01 09:05:29;;;;;;;49.35;24.40;;;11.50;99.90;;;;;;5106299;28;20039;-83
2022/01/01 09:07:54;;;;;;;43.83;22.83;;;11.60;99.90;;;;;;5096351;28;20047;-84
2022/01/01 09:10:20;;;;;;;46.22;23.17;;;11.60;99.90;;;;;;5098999;28;20084;-84
2022/01/01 09:12:46;;;;;;;42.70;24.33;;;11.50;99.90;;;;;;5121847;27;20046;-85
2022/01/01 09:15:12;;;;;;;47.75;24.33;;;11.60;99.90;;;;;;5116984;27;20122;-83
2022/01/01 09:17:38;;;;;;;45.90;24.85;;;11.60;99.90;;;;;;5095607;28;20122;-85
2022/01/01 09:20:04;;;;;;;44.25;24.35;;;11.70;99.90;;;;;;5115446;27;20184;-84
2022/01/01 09:22:29;;;;;;;43.85;24.05;;;11.60;99.90;;;;;;5094952;28;20114;-84
2022/01/01 09:24:55;;;;;;;48.92;23.20;;;11.60;99.90;;;;;;5118237;27;20494;-84
2022/01/01 09:27:21;;;;;;;45.42;22.45;;;11.60;99.90;;;;;;5094003;28;20050;-84
2022/01/01 09:29:46;;;;;;;43.70;24.30;;;11.60;99.90;;;;;;5130717;27;20050;-83
2022/01/01 09:32:12;;;;;;;42.67;22.58;;;11.60;99.90;;;;;;5134732;27;20047;-84
2022/01/01 09:34:38;;;;;;;36.53;21.35;;;11.70;99.90;;;;;;5105950;28;20044;-83
2022/01/01 09:37:04;;;;;;;39.83;21.50;;;11.70;99.90;;;;;;5104685;27;20043;-85
2022/01/01 09:39:30;;;;;;;40.30;19.40;;;11.70;99.90;;;;;;5129570;27;20031;-84
2022/01/01 09:41:56;;;;;;;34.05;19.05;;;11.70;99.90;;;;;;5127879;27;20134;-76
2022/01/01 09:44:22;;;;;;;40.60;20.05;;;11.70;99.90;;;;;;5139635;27;20047;-82
2022/01/01 09:46:49;;;;;;;34.72;19.52;;;11.70;99.90;;;;;;5106749;27;20497;-85
2022/01/01 09:49:16;;;;;;;36.08;18.13;;;11.70;99.90;;;;;;5118074;27;20100;-78
2022/01/01 09:51:42;;;;;;;30.85;17.33;;;11.80;99.90;;;;;;5112833;27;20547;-86
2022/01/01 09:54:08;;;;;;;32.88;17.58;;;11.70;99.90;;;;;;5104340;27;20035;-86
2022/01/01 09:56:34;;;;;;;31.10;16.33;;;11.80;99.90;;;;;;5132709;27;20058;-81
2022/01/01 09:59:00;;;;;;;28.10;15.95;;;11.80;99.90;;;;;;5114596;27;20096;-85
2022/01/01 10:01:26;;;;;;;28.13;16.92;;;11.80;99.90;;;;;;5097077;28;20477;-84
2022/01/01 10:03:52;;;;;;;33.65;14.75;;;11.70;99.90;;;;;;5113925;27;20045;-84
2022/01/01 10:06:23;;;;;;;28.98;14.38;;;11.70;99.90;;;;;;5096717;27;20074;-83
2022/01/01 10:08:56;;;;;;;27.70;15.20;;;11.70;99.90;;;;;;5113802;27;20043;-83
2022/01/01 10:11:22;;;;;;;28.55;16.00;;;11.70;99.90;;;;;;5093931;28;20048;-82
2022/01/01 10:13:47;;;;;;;30.90;16.73;;;11.70;99.90;;;;;;5112173;27;20036;-85
2022/01/01 10:16:14;;;;;;;23.80;14.77;;;11.70;99.90;;;;;;5095127;28;20134;-75
2022/01/01 10:18:46;;;;;;;33.38;14.85;;;11.70;99.90;;;;;;5102915;28;20062;-84
2022/01/01 10:21:18;;;;;;;32.28;13.93;;;11.70;99.90;;;;;;5112752;27;20126;-76
2022/01/01 10:23:47;;;;;;;28.73;14.35;;;11.70;99.90;;;;;;5119542;27;20493;-83
2022/01/01 10:29:24;;;;;;;26.73;13.63;;;11.70;99.90;;;;;;5100519;27;20057;-82
2022/01/01 10:31:58;;;;;;;38.13;15.32;;;11.80;99.90;;;;;;5110510;27;20483;-81
2022/01/01 10:34:29;;;;;;;26.33;14.32;;;11.80;99.90;;;;;;5103469;28;20085;-82
2022/01/01 10:36:55;;;;;;;24.67;13.18;;;11.80;99.90;;;;;;5112532;28;20107;-82
2022/01/01 10:39:22;;;;;;;23.23;13.45;;;11.80;99.90;;;;;;5097216;27;20047;-82
2022/01/01 10:41:49;;;;;;;30.15;16.02;;;11.80;99.90;;;;;;5122924;27;20051;-82
2022/01/01 10:44:17;;;;;;;27.65;13.85;;;11.80;99.90;;;;;;5121141;27;20058;-80
2022/01/01 10:46:44;;;;;;;26.95;15.13;;;11.90;99.90;;;;;;5118662;28;20036;-79
2022/01/01 10:52:12;;;;;;;24.10;12.60;;;12.00;99.90;;;;;;5114322;27;20103;-81
2022/01/01 10:54:38;;;;;;;23.90;13.32;;;11.90;99.90;;;;;;5120471;27;20063;-81
2022/01/01 10:57:08;;;;;;;25.92;13.90;;;12.00;99.90;;;;;;5116686;27;20400;-82
2022/01/01 10:59:40;;;;;;;27.73;13.15;;;12.00;99.90;;;;;;5113364;27;20054;-83
2022/01/01 11:02:07;;;;;;;26.27;14.25;;;12.00;99.90;;;;;;5130178;27;20039;-83
2022/01/01 11:04:36;;;;;;;22.65;12.20;;;12.00;99.90;;;;;;5118024;27;20083;-83
2022/01/01 11:07:03;;;;;;;26.75;12.20;;;12.00;99.90;;;;;;5126411;27;20040;-77
2022/01/01 11:09:31;;;;;;;29.25;11.88;;;12.00;99.90;;;;;;5119400;27;20044;-83
2022/01/01 11:12:02;;;;;;;26.83;12.55;;;12.10;99.90;;;;;;5136089;27;20043;-87
2022/01/01 11:14:31;;;;;;;24.38;11.90;;;12.00;99.90;;;;;;5113131;27;20046;-81
2022/01/01 11:16:58;;;;;;;25.88;11.82;;;12.10;99.90;;;;;;5119637;28;20502;-83
2022/01/01 11:19:25;;;;;;;19.17;11.00;;;12.10;99.90;;;;;;5128461;27;20050;-82
2022/01/01 11:21:52;;;;;;;23.73;11.25;;;12.10;99.90;;;;;;5099047;28;20501;-83
2022/01/01 11:24:18;;;;;;;18.25;9.27;;;12.10;99.90;;;;;;5123150;27;20400;-85
2022/01/01 11:26:45;;;;;;;17.33;9.38;;;12.20;99.90;;;;;;5111311;28;20108;-85
2022/01/01 11:29:13;;;;;;;25.10;10.50;;;12.20;99.90;;;;;;5115058;27;20059;-85
2022/01/01 11:31:40;;;;;;;15.93;9.10;;;12.30;99.90;;;;;;5124700;27;20084;-85
2022/01/01 11:34:08;;;;;;;20.35;9.65;;;12.30;99.90;;;;;;5100853;28;20476;-86
2022/01/01 11:36:35;;;;;;;31.38;13.23;;;12.30;99.90;;;;;;5115374;27;20044;-84
2022/01/01 11:39:14;;;;;;;22.10;9.57;;;12.30;99.90;;;;;;5109639;28;20047;-84
2022/01/01 11:41:44;;;;;;;19.98;8.77;;;12.30;99.90;;;;;;5135758;27;20047;-83
2022/01/01 11:44:32;;;;;;;15.83;8.10;;;12.40;99.90;;;;;;5116503;27;20039;-85
2022/01/01 11:47:00;;;;;;;15.02;8.57;;;12.40;99.90;;;;;;5097902;28;20293;-85
2022/01/01 11:49:28;;;;;;;11.90;7.22;;;12.40;99.90;;;;;;5132350;27;20122;-84
2022/01/01 11:51:56;;;;;;;18.60;7.38;;;12.40;99.90;;;;;;5138114;27;20122;-79
2022/01/01 11:54:42;;;;;;;20.98;8.82;;;12.40;99.90;;;;;;5123477;27;20046;-85
2022/01/01 11:57:20;;;;;;;15.30;7.78;;;12.30;99.90;;;;;;5121163;27;20446;-84
2022/01/01 11:59:49;;;;;;;18.50;9.43;;;12.30;99.90;;;;;;5121052;27;20095;-85
2022/01/01 12:02:23;;;;;;;12.88;7.30;;;12.30;99.90;;;;;;5135890;27;20043;-79
2022/01/01 12:04:55;;;;;;;11.52;7.63;;;12.40;99.90;;;;;;5109349;27;20035;-85
2022/01/01 12:07:21;;;;;;;26.30;8.55;;;12.30;99.90;;;;;;5100001;27;20040;-82
2022/01/01 12:10:01;;;;;;;19.27;7.55;;;12.30;99.90;;;;;;5112931;27;20065;-83
2022/01/01 12:12:50;;;;;;;16.48;7.93;;;12.40;99.90;;;;;;5092126;28;20450;-85
2022/01/01 12:15:25;;;;;;;13.02;7.60;;;12.40;99.90;;;;;;5110075;28;20035;-79
2022/01/01 12:17:57;;;;;;;15.73;8.13;;;12.40;99.90;;;;;;5092452;28;20044;-83
2022/01/01 12:20:26;;;;;;;16.98;7.18;;;12.40;99.90;;;;;;5093270;28;20051;-84
2022/01/01 12:22:53;;;;;;;13.43;7.10;;;12.50;99.90;;;;;;5117181;27;20060;-83
2022/01/01 12:25:27;;;;;;;14.05;6.28;;;12.50;99.90;;;;;;5127330;27;20353;-83
2022/01/01 12:28:02;;;;;;;9.00;5.53;;;12.50;99.90;;;;;;5110690;27;20051;-81
2022/01/01 12:30:40;;;;;;;21.25;7.85;;;12.50;99.90;;;;;;5111002;27;20035;-84
2022/01/01 12:33:06;;;;;;;15.57;5.85;;;12.50;99.90;;;;;;5097354;28;20505;-85
2022/01/01 12:35:44;;;;;;;12.07;6.55;;;12.50;99.90;;;;;;5108056;27;20306;-84
2022/01/01 12:38:14;;;;;;;15.20;5.57;;;12.50;99.90;;;;;;5113571;27;20047;-82